createdAt,value
2018-11-14T00:00:45.407Z,9.02
2018-11-14T00:03:15.053Z,9.08
2018-11-14T00:05:44.715Z,9.07
2018-11-14T00:08:14.376Z,9.09
2018-11-14T00:10:44.032Z,9.13
2018-11-14T00:13:13.648Z,9.11
2018-11-14T00:15:43.328Z,9.19
2018-11-14T00:18:12.975Z,9.16
2018-11-14T00:20:42.640Z,9.17
2018-11-14T00:23:12.267Z,9.18
2018-11-14T00:25:41.912Z,9.18
2018-11-14T00:28:11.552Z,9.18
2018-11-14T00:30:41.219Z,9.17
2018-11-14T00:33:10.906Z,9.16
2018-11-14T00:35:40.627Z,9.24
2018-11-14T00:38:10.224Z,9.23
2018-11-14T00:40:39.879Z,9.22
2018-11-14T00:43:09.525Z,9.15
2018-11-14T00:45:39.208Z,9.21
2018-11-14T00:48:08.828Z,9.15
2018-11-14T00:50:38.447Z,9.16
2018-11-14T00:53:08.079Z,9.15
2018-11-14T00:55:37.739Z,9.06
2018-11-14T00:58:07.385Z,9.00
2018-11-14T01:00:37.073Z,9.02
2018-11-14T01:03:06.758Z,8.97
2018-11-14T01:05:36.407Z,9.02
2018-11-14T01:08:06.179Z,9.03
2018-11-14T01:10:35.868Z,9.04
2018-11-14T01:13:05.612Z,9.10
2018-11-14T01:15:35.231Z,9.08
2018-11-14T01:18:05.218Z,9.06
2018-11-14T01:20:34.584Z,9.11
2018-11-14T01:23:04.239Z,9.10
2018-11-14T01:25:33.886Z,9.08
2018-11-14T01:28:03.515Z,9.06
2018-11-14T01:30:33.173Z,9.06
2018-11-14T01:33:02.789Z,9.03
2018-11-14T01:35:32.428Z,9.01
2018-11-14T01:38:02.039Z,9.01
2018-11-14T01:40:31.700Z,9.08
2018-11-14T01:43:01.328Z,9.03
2018-11-14T01:45:31.005Z,8.99
2018-11-14T01:48:00.627Z,8.95
2018-11-14T01:50:30.296Z,8.90
2018-11-14T01:52:59.923Z,8.88
2018-11-14T01:55:29.580Z,8.86
2018-11-14T01:57:59.236Z,8.90
2018-11-14T02:00:28.908Z,8.92
2018-11-14T02:02:58.539Z,8.96
2018-11-14T02:05:28.183Z,8.96
2018-11-14T02:07:57.828Z,9.01
2018-11-14T02:10:27.483Z,8.94
2018-11-14T02:12:57.139Z,8.90
2018-11-14T02:15:26.836Z,8.86
2018-11-14T02:17:56.475Z,8.82
2018-11-14T02:20:26.136Z,8.68
2018-11-14T02:22:55.771Z,8.59
2018-11-14T02:25:25.467Z,8.45
2018-11-14T02:27:55.112Z,8.36
2018-11-14T02:30:25.076Z,8.29
2018-11-14T02:32:54.700Z,8.25
2018-11-14T02:35:24.502Z,8.23
2018-11-14T02:37:54.131Z,8.28
2018-11-14T02:40:23.779Z,8.26
2018-11-14T02:42:53.423Z,8.22
2018-11-14T02:45:23.102Z,8.21
2018-11-14T02:47:52.730Z,8.19
2018-11-14T02:50:22.399Z,8.14
2018-11-14T02:52:52.052Z,8.09
2018-11-14T02:55:21.704Z,8.06
2018-11-14T02:57:51.332Z,8.04
2018-11-14T03:00:21.960Z,7.98
2018-11-14T03:02:51.592Z,7.98
2018-11-14T03:05:21.236Z,7.93
2018-11-14T03:07:50.897Z,7.90
2018-11-14T03:10:21.759Z,7.89
2018-11-14T03:12:51.409Z,7.88
2018-11-14T03:15:22.295Z,7.88
2018-11-14T03:17:52.021Z,7.88
2018-11-14T03:20:22.431Z,7.83
2018-11-14T03:22:52.072Z,7.81
2018-11-14T03:25:21.711Z,7.79
2018-11-14T03:27:51.395Z,7.81
2018-11-14T03:30:21.023Z,7.78
2018-11-14T03:32:50.658Z,7.74
2018-11-14T03:35:20.352Z,7.69
2018-11-14T03:37:50.000Z,7.66
2018-11-14T03:40:19.648Z,7.63
2018-11-14T03:42:49.335Z,7.63
2018-11-14T03:45:18.976Z,7.59
2018-11-14T03:47:49.144Z,7.60
2018-11-14T03:50:18.800Z,7.59
2018-11-14T03:52:48.460Z,7.60
2018-11-14T03:55:18.203Z,7.57
2018-11-14T03:57:47.868Z,7.57
2018-11-14T04:00:17.515Z,7.55
2018-11-14T04:02:48.488Z,7.55
2018-11-14T04:05:18.196Z,7.48
2018-11-14T04:07:47.847Z,7.42
2018-11-14T04:10:17.520Z,7.40
2018-11-14T04:12:47.191Z,7.43
2018-11-14T04:15:16.839Z,7.47
2018-11-14T04:17:46.540Z,7.45
2018-11-14T04:20:17.368Z,7.49
2018-11-14T04:22:47.529Z,7.57
2018-11-14T04:25:18.627Z,7.57
2018-11-14T04:27:48.992Z,7.60
2018-11-14T04:30:21.735Z,7.63
2018-11-14T04:32:51.437Z,7.66
2018-11-14T04:35:21.674Z,7.77
2018-11-14T04:37:51.493Z,7.76
2018-11-14T04:40:22.428Z,7.73
2018-11-14T04:42:52.127Z,7.76
2018-11-14T04:45:23.695Z,7.74
2018-11-14T04:47:53.520Z,7.67
2018-11-14T04:50:25.783Z,7.82
2018-11-14T04:52:55.863Z,7.77
2018-11-14T04:55:26.441Z,7.98
2018-11-14T04:57:56.368Z,7.93
2018-11-14T05:00:26.871Z,7.89
2018-11-14T05:02:56.587Z,7.92
2018-11-14T05:05:26.255Z,7.90
2018-11-14T05:07:55.907Z,7.93
2018-11-14T05:10:26.772Z,7.93
2018-11-14T05:12:56.478Z,7.92
2018-11-14T05:15:26.745Z,8.03
2018-11-14T05:17:56.635Z,7.98
2018-11-14T05:20:26.351Z,8.04
2018-11-14T05:22:56.029Z,8.03
2018-11-14T05:25:25.660Z,8.10
2018-11-14T05:27:55.575Z,8.12
2018-11-14T05:30:25.244Z,8.09
2018-11-14T05:32:54.890Z,8.22
2018-11-14T05:35:24.580Z,8.21
2018-11-14T05:37:54.231Z,8.23
2018-11-14T05:40:23.983Z,8.22
2018-11-14T05:42:53.912Z,8.40
2018-11-14T05:45:25.852Z,8.27
2018-11-14T05:47:56.018Z,8.33
2018-11-14T05:50:25.649Z,8.40
2018-11-14T05:52:55.307Z,8.37
2018-11-14T05:55:25.004Z,8.44
2018-11-14T05:57:54.636Z,8.30
2018-11-14T06:00:29.327Z,8.25
2018-11-14T06:02:59.659Z,8.23
2018-11-14T06:05:29.356Z,8.18
2018-11-14T06:07:59.028Z,8.21
2018-11-14T06:10:28.679Z,8.21
2018-11-14T06:12:58.387Z,8.18
2018-11-14T06:15:28.189Z,8.24
2018-11-14T06:17:58.715Z,8.12
2018-11-14T06:20:28.543Z,8.17
2018-11-14T06:22:58.176Z,8.14
2018-11-14T06:25:35.947Z,8.22
2018-11-14T06:28:06.827Z,8.14
2018-11-14T06:30:37.080Z,8.03
2018-11-14T06:33:07.993Z,7.96
2018-11-14T06:35:37.705Z,7.89
2018-11-14T06:38:07.433Z,7.81
2018-11-14T06:40:37.139Z,7.78
2018-11-14T06:43:06.823Z,7.77
2018-11-14T06:45:36.758Z,7.77
2018-11-14T06:48:06.844Z,7.80
2018-11-14T06:50:36.487Z,7.89
2018-11-14T06:53:07.176Z,7.82
2018-11-14T06:55:36.812Z,7.79
2018-11-14T06:58:06.470Z,7.75
2018-11-14T07:00:36.599Z,7.78
2018-11-14T07:03:07.419Z,7.77
2018-11-14T07:05:37.176Z,7.81
2018-11-14T07:08:06.860Z,7.73
2018-11-14T07:10:37.416Z,7.76
2018-11-14T07:13:13.218Z,7.73
2018-11-14T07:15:43.647Z,7.70
2018-11-14T07:18:13.318Z,7.71
2018-11-14T07:20:44.352Z,7.68
2018-11-14T07:23:14.022Z,7.70
2018-11-14T07:25:43.688Z,7.69
2018-11-14T07:28:13.356Z,7.77
2018-11-14T07:30:43.004Z,7.79
2018-11-14T07:33:12.728Z,7.92
2018-11-14T07:35:42.408Z,7.85
2018-11-14T07:38:29.663Z,7.87
2018-11-14T07:41:00.021Z,7.90
2018-11-14T07:43:29.749Z,7.91
2018-11-14T07:45:59.423Z,7.95
2018-11-14T07:48:29.069Z,7.93
2018-11-14T07:50:58.704Z,7.93
2018-11-14T07:53:28.593Z,8.05
2018-11-14T07:55:58.271Z,8.02
2018-11-14T07:58:27.896Z,8.09
2018-11-14T08:00:57.707Z,8.20
2018-11-14T08:03:27.340Z,8.18
2018-11-14T08:05:57.291Z,8.20
2018-11-14T08:08:27.021Z,8.26
2018-11-14T08:10:56.696Z,8.33
2018-11-14T08:13:27.472Z,8.37
2018-11-14T08:15:58.668Z,8.45
2018-11-14T08:18:28.528Z,8.53
2018-11-14T08:20:58.918Z,8.62
2018-11-14T08:23:28.588Z,8.69
2018-11-14T08:25:58.447Z,8.75
2018-11-14T08:28:28.151Z,8.84
2018-11-14T08:30:57.771Z,8.92
2018-11-14T08:33:27.489Z,8.91
2018-11-14T08:35:57.112Z,8.95
2018-11-14T08:38:26.807Z,8.99
2018-11-14T08:40:56.507Z,9.14
2018-11-14T08:43:26.144Z,9.18
2018-11-14T08:45:55.792Z,9.20
2018-11-14T08:48:25.492Z,9.22
2018-11-14T08:50:55.143Z,9.26
2018-11-14T08:53:24.788Z,9.30
2018-11-14T08:55:54.548Z,9.36
2018-11-14T08:58:24.176Z,9.31
2018-11-14T09:00:53.808Z,9.38
2018-11-14T09:03:23.523Z,9.45
2018-11-14T09:05:53.194Z,9.43
2018-11-14T09:08:22.831Z,9.45
2018-11-14T09:10:52.515Z,9.55
2018-11-14T09:13:22.184Z,9.57
2018-11-14T09:15:51.839Z,9.69
2018-11-14T09:18:21.627Z,9.76
2018-11-14T09:20:51.211Z,9.98
2018-11-14T09:23:20.867Z,10.09
2018-11-14T09:25:50.564Z,10.11
2018-11-14T09:28:20.196Z,10.16
2018-11-14T09:30:49.889Z,10.27
2018-11-14T09:33:19.667Z,10.52
2018-11-14T09:35:49.277Z,10.71
2018-11-14T09:38:18.948Z,10.82
2018-11-14T09:40:48.699Z,10.95
2018-11-14T09:43:18.303Z,11.04
2018-11-14T09:45:47.945Z,11.21
2018-11-14T09:48:17.660Z,11.35
2018-11-14T09:50:47.327Z,11.32
2018-11-14T09:53:16.981Z,11.44
2018-11-14T09:55:46.655Z,11.53
2018-11-14T09:58:16.286Z,11.68
2018-11-14T10:00:45.994Z,11.80
2018-11-14T10:03:17.128Z,11.71
2018-11-14T10:05:46.804Z,11.97
2018-11-14T10:08:16.459Z,11.86
2018-11-14T10:10:46.186Z,11.98
2018-11-14T10:13:15.857Z,11.96
2018-11-14T10:15:45.592Z,12.06
2018-11-14T10:18:15.559Z,11.92
2018-11-14T10:20:45.196Z,12.00
2018-11-14T10:23:14.860Z,12.13
2018-11-14T10:25:44.560Z,12.30
2018-11-14T10:28:14.191Z,12.59
2018-11-14T10:30:43.864Z,12.51
2018-11-14T10:33:13.576Z,12.47
2018-11-14T10:35:43.220Z,12.54
2018-11-14T10:38:12.895Z,12.68
2018-11-14T10:40:42.584Z,12.70
2018-11-14T10:43:12.230Z,12.76
2018-11-14T10:45:41.874Z,12.88
2018-11-14T10:48:11.554Z,13.01
2018-11-14T10:50:41.212Z,13.04
2018-11-14T10:53:10.880Z,13.21
2018-11-14T10:55:40.543Z,13.23
2018-11-14T10:58:10.240Z,13.38
2018-11-14T11:00:45.060Z,13.63
2018-11-14T11:03:20.000Z,13.58
2018-11-14T11:05:54.916Z,13.70
2018-11-14T11:08:29.888Z,13.80
2018-11-14T11:11:04.808Z,13.92
2018-11-14T11:13:39.659Z,13.89
2018-11-14T11:16:26.647Z,13.89
2018-11-14T11:18:56.303Z,13.79
2018-11-14T11:21:25.940Z,13.92
2018-11-14T11:23:55.684Z,13.83
2018-11-14T11:26:25.331Z,13.71
2018-11-14T11:28:54.975Z,13.73
2018-11-14T11:31:24.680Z,13.77
2018-11-14T11:33:54.324Z,13.89
2018-11-14T11:36:23.964Z,13.83
2018-11-14T11:38:53.631Z,13.78
2018-11-14T11:41:23.260Z,13.60
2018-11-14T11:43:52.908Z,13.65
2018-11-14T11:46:22.593Z,13.58
2018-11-14T11:48:52.514Z,13.61
2018-11-14T11:51:22.211Z,13.75
2018-11-14T11:53:51.864Z,13.84
2018-11-14T11:56:21.528Z,13.92
2018-11-14T11:58:51.232Z,14.11
2018-11-14T12:01:20.864Z,14.26
2018-11-14T12:03:50.532Z,14.15
2018-11-14T12:06:20.330Z,14.10
2018-11-14T12:08:49.879Z,14.45
2018-11-14T12:11:19.528Z,14.39
2018-11-14T12:13:49.263Z,14.27
2018-11-14T12:16:19.308Z,14.37
2018-11-14T12:18:48.967Z,14.13
2018-11-14T12:21:18.687Z,14.16
2018-11-14T12:23:48.367Z,14.28
2018-11-14T12:26:18.092Z,14.32
2018-11-14T12:28:47.740Z,14.38
2018-11-14T12:31:17.467Z,14.33
2018-11-14T12:33:47.121Z,14.35
2018-11-14T12:36:16.771Z,14.56
2018-11-14T12:38:46.556Z,14.39
2018-11-14T12:41:16.459Z,14.19
2018-11-14T12:43:46.109Z,14.14
2018-11-14T12:46:15.915Z,14.11
2018-11-14T12:48:45.604Z,14.20
2018-11-14T12:51:15.232Z,14.38
2018-11-14T12:53:44.875Z,14.25
2018-11-14T12:56:14.552Z,14.28
2018-11-14T12:58:44.203Z,14.31
2018-11-14T13:01:13.852Z,14.47
2018-11-14T13:03:43.540Z,14.45
2018-11-14T13:06:13.168Z,14.37
2018-11-14T13:08:42.811Z,14.51
2018-11-14T13:11:12.527Z,14.47
2018-11-14T13:13:47.463Z,14.58
2018-11-14T13:16:18.047Z,14.70
2018-11-14T13:18:47.687Z,14.78
2018-11-14T13:21:17.385Z,14.87
2018-11-14T13:23:47.109Z,14.97
2018-11-14T13:26:16.736Z,15.07
2018-11-14T13:28:46.412Z,15.20
2018-11-14T13:31:16.118Z,15.25
2018-11-14T13:33:45.778Z,15.40
2018-11-14T13:36:15.448Z,15.27
2018-11-14T13:38:45.139Z,15.18
2018-11-14T13:41:14.767Z,15.28
2018-11-14T13:43:44.417Z,15.17
2018-11-14T13:46:14.103Z,14.89
2018-11-14T13:48:43.799Z,14.52
2018-11-14T13:51:13.518Z,14.60
2018-11-14T13:53:43.088Z,14.40
2018-11-14T13:56:12.731Z,14.28
2018-11-14T13:58:42.388Z,14.51
2018-11-14T14:01:12.218Z,14.69
2018-11-14T14:03:41.804Z,14.68
2018-11-14T14:06:11.442Z,14.76
2018-11-14T14:08:41.135Z,14.47
2018-11-14T14:11:10.781Z,14.42
2018-11-14T14:13:45.581Z,14.26
2018-11-14T14:16:15.207Z,14.09
2018-11-14T14:18:45.453Z,14.00
2018-11-14T14:21:15.272Z,14.35
2018-11-14T14:23:44.904Z,14.59
2018-11-14T14:26:14.640Z,14.96
2018-11-14T14:28:44.278Z,15.29
2018-11-14T14:31:13.941Z,15.39
2018-11-14T14:33:43.588Z,15.61
2018-11-14T14:36:13.249Z,15.84
2018-11-14T14:38:42.899Z,15.93
2018-11-14T14:41:12.532Z,15.83
2018-11-14T14:43:42.200Z,15.84
2018-11-14T14:46:11.890Z,15.81
2018-11-14T14:48:41.572Z,15.45
2018-11-14T14:51:11.261Z,15.46
2018-11-14T14:53:40.925Z,15.30
2018-11-14T14:56:10.668Z,15.19
2018-11-14T14:58:40.359Z,14.95
2018-11-14T15:01:10.052Z,14.82
2018-11-14T15:03:39.819Z,14.79
2018-11-14T15:06:09.452Z,14.56
2018-11-14T15:08:39.126Z,14.20
2018-11-14T15:11:08.771Z,13.83
2018-11-14T15:13:38.423Z,13.44
2018-11-14T15:16:08.099Z,13.28
2018-11-14T15:18:37.985Z,13.14
2018-11-14T15:21:08.767Z,12.99
2018-11-14T15:23:38.464Z,12.79
2018-11-14T15:26:08.099Z,12.61
2018-11-14T15:28:37.840Z,12.43
2018-11-14T15:31:07.548Z,12.43
2018-11-14T15:33:37.247Z,12.23
2018-11-14T15:36:06.993Z,12.25
2018-11-14T15:38:36.676Z,12.17
2018-11-14T15:41:06.819Z,12.24
2018-11-14T15:43:36.531Z,12.20
2018-11-14T15:46:06.237Z,12.11
2018-11-14T15:48:35.939Z,12.12
2018-11-14T15:51:05.763Z,12.08
2018-11-14T15:53:35.444Z,12.01
2018-11-14T15:56:05.349Z,11.99
2018-11-14T15:58:35.028Z,11.92
2018-11-14T16:01:05.038Z,11.83
2018-11-14T16:03:34.720Z,11.83
2018-11-14T16:06:04.452Z,11.78
2018-11-14T16:08:34.140Z,11.75
2018-11-14T16:11:03.812Z,11.66
2018-11-14T16:13:33.499Z,11.66
2018-11-14T16:16:03.188Z,11.57
2018-11-14T16:18:32.874Z,11.57
2018-11-14T16:21:02.543Z,11.54
2018-11-14T16:23:32.208Z,11.43
2018-11-14T16:26:01.859Z,11.44
2018-11-14T16:28:31.540Z,11.42
2018-11-14T16:31:01.188Z,11.34
2018-11-14T16:33:30.855Z,11.35
2018-11-14T16:36:00.552Z,11.27
2018-11-14T16:38:30.221Z,11.31
2018-11-14T16:40:59.859Z,11.32
2018-11-14T16:43:29.507Z,11.29
2018-11-14T16:45:59.159Z,11.20
2018-11-14T16:48:28.841Z,11.17
2018-11-14T16:50:58.481Z,11.11
2018-11-14T16:53:28.197Z,11.09
2018-11-14T16:55:57.853Z,11.08
2018-11-14T16:58:27.532Z,10.99
2018-11-14T17:00:57.228Z,11.01
2018-11-14T17:03:26.924Z,10.99
2018-11-14T17:05:56.602Z,10.97
2018-11-14T17:08:26.276Z,10.91
2018-11-14T17:10:55.930Z,10.93
2018-11-14T17:13:25.587Z,10.88
2018-11-14T17:15:55.264Z,10.87
2018-11-14T17:18:24.917Z,10.90
2018-11-14T17:20:54.716Z,10.88
2018-11-14T17:23:24.368Z,10.81
2018-11-14T17:25:54.049Z,10.77
2018-11-14T17:28:23.718Z,10.65
2018-11-14T17:30:53.396Z,10.63
2018-11-14T17:33:23.048Z,10.60
2018-11-14T17:35:52.790Z,10.47
2018-11-14T17:38:22.415Z,10.47
2018-11-14T17:40:53.060Z,10.31
2018-11-14T17:43:22.716Z,10.23
2018-11-14T17:45:52.367Z,10.15
2018-11-14T17:48:22.024Z,10.03
2018-11-14T17:50:51.767Z,9.89
2018-11-14T17:53:21.366Z,9.73
2018-11-14T17:55:51.036Z,9.63
2018-11-14T17:58:20.723Z,9.59
2018-11-14T18:00:50.432Z,9.54
2018-11-14T18:03:20.111Z,9.55
2018-11-14T18:05:49.777Z,9.46
2018-11-14T18:08:19.435Z,9.31
2018-11-14T18:10:49.131Z,9.21
2018-11-14T18:13:18.786Z,9.18
2018-11-14T18:15:48.484Z,9.09
2018-11-14T18:18:18.136Z,9.08
2018-11-14T18:20:47.889Z,9.06
2018-11-14T18:23:17.547Z,8.97
2018-11-14T18:25:47.209Z,8.95
2018-11-14T18:28:16.873Z,8.97
2018-11-14T18:30:46.660Z,8.95
2018-11-14T18:33:16.268Z,8.99
2018-11-14T18:35:45.948Z,8.92
2018-11-14T18:38:15.592Z,8.88
2018-11-14T18:40:45.259Z,8.87
2018-11-14T18:43:14.936Z,8.83
2018-11-14T18:45:44.702Z,8.83
2018-11-14T18:48:14.352Z,8.94
2018-11-14T18:50:44.024Z,8.91
2018-11-14T18:53:13.724Z,8.84
2018-11-14T18:55:43.400Z,8.80
2018-11-14T18:58:13.068Z,8.91
2018-11-14T19:00:42.776Z,8.90
2018-11-14T19:03:12.442Z,8.93
2018-11-14T19:05:42.137Z,8.75
2018-11-14T19:08:11.792Z,8.72
2018-11-14T19:10:41.481Z,8.79
2018-11-14T19:13:11.132Z,8.77
2018-11-14T19:15:40.808Z,8.62
2018-11-14T19:18:10.465Z,8.57
2018-11-14T19:20:40.139Z,8.62
2018-11-14T19:23:09.820Z,8.63
2018-11-14T19:25:39.501Z,8.51
2018-11-14T19:28:09.139Z,8.49
2018-11-14T19:30:39.227Z,8.47
2018-11-14T19:33:08.827Z,8.44
2018-11-14T19:35:38.516Z,8.38
2018-11-14T19:38:08.175Z,8.36
2018-11-14T19:40:38.340Z,8.25
2018-11-14T19:43:09.511Z,8.21
2018-11-14T19:45:40.581Z,8.23
2018-11-14T19:48:10.503Z,8.12
2018-11-14T19:50:40.263Z,8.06
2018-11-14T19:53:09.883Z,8.10
2018-11-14T19:55:39.581Z,8.08
2018-11-14T19:58:09.275Z,8.14
2018-11-14T20:00:40.075Z,8.11
2018-11-14T20:03:10.256Z,7.93
2018-11-14T20:05:39.925Z,8.08
2018-11-14T20:08:09.580Z,7.94
2018-11-14T20:10:39.252Z,7.99
2018-11-14T20:13:08.902Z,7.96
2018-11-14T20:15:38.896Z,8.00
2018-11-14T20:18:08.952Z,7.98
2018-11-14T20:20:39.631Z,7.88
2018-11-14T20:23:09.453Z,7.91
2018-11-14T20:25:39.193Z,7.80
2018-11-14T20:28:08.819Z,7.87
2018-11-14T20:30:39.692Z,7.75
2018-11-14T20:33:11.039Z,7.74
2018-11-14T20:35:40.995Z,7.77
2018-11-14T20:38:10.671Z,7.78
2018-11-14T20:40:41.903Z,7.76
2018-11-14T20:43:11.762Z,7.77
2018-11-14T20:45:41.494Z,7.73
2018-11-14T20:48:11.150Z,7.68
2018-11-14T20:50:40.796Z,7.68
2018-11-14T20:53:10.524Z,7.66
2018-11-14T20:55:40.197Z,7.74
2018-11-14T20:58:09.864Z,7.70
2018-11-14T21:00:40.002Z,7.77
2018-11-14T21:03:09.757Z,7.74
2018-11-14T21:05:39.497Z,7.77
2018-11-14T21:08:09.132Z,7.74
2018-11-14T21:10:38.805Z,7.69
2018-11-14T21:13:08.540Z,7.71
2018-11-14T21:15:39.467Z,7.74
2018-11-14T21:18:09.435Z,7.64
2018-11-14T21:20:39.093Z,7.67
2018-11-14T21:23:08.959Z,7.70
2018-11-14T21:25:38.628Z,7.64
2018-11-14T21:28:08.281Z,7.62
2018-11-14T21:30:37.944Z,7.74
2018-11-14T21:33:07.678Z,7.70
2018-11-14T21:35:37.980Z,7.85
2018-11-14T21:38:09.038Z,7.81
2018-11-14T21:40:38.655Z,7.81
2018-11-14T21:43:08.645Z,7.74
2018-11-14T21:45:38.308Z,7.69
2018-11-14T21:48:16.209Z,7.70
2018-11-14T21:50:46.406Z,7.65
2018-11-14T21:53:16.165Z,7.57
2018-11-14T21:55:45.783Z,7.62
2018-11-14T21:58:15.499Z,7.54
2018-11-14T22:00:45.204Z,7.58
2018-11-14T22:03:14.835Z,7.57
2018-11-14T22:05:44.448Z,7.43
2018-11-14T22:08:14.131Z,7.57
2018-11-14T22:10:43.771Z,7.58
2018-11-14T22:13:13.439Z,7.64
2018-11-14T22:15:43.141Z,7.53
2018-11-14T22:18:12.791Z,7.47
2018-11-14T22:20:42.449Z,7.54
2018-11-14T22:23:12.141Z,7.42
2018-11-14T22:25:41.798Z,7.38
2018-11-14T22:28:11.528Z,7.45
2018-11-14T22:30:41.216Z,7.42
2018-11-14T22:33:10.883Z,7.46
2018-11-14T22:35:40.527Z,7.37
2018-11-14T22:38:10.288Z,7.35
2018-11-14T22:40:39.943Z,7.35
2018-11-14T22:43:09.600Z,7.30
2018-11-14T22:45:39.307Z,7.29
2018-11-14T22:48:08.948Z,7.20
2018-11-14T22:50:38.587Z,7.23
2018-11-14T22:53:08.261Z,7.20
2018-11-14T22:55:37.899Z,7.20
2018-11-14T22:58:07.571Z,7.20
2018-11-14T23:00:42.348Z,7.24
2018-11-14T23:03:11.978Z,7.18
2018-11-14T23:05:41.635Z,7.18
2018-11-14T23:08:11.336Z,7.09
2018-11-14T23:10:40.995Z,6.96
2018-11-14T23:13:10.659Z,7.01
2018-11-14T23:15:40.514Z,6.98
2018-11-14T23:18:10.204Z,6.93
2018-11-14T23:20:39.843Z,6.98
2018-11-14T23:23:09.912Z,6.96
2018-11-14T23:25:39.532Z,7.03
2018-11-14T23:28:09.201Z,7.10
2018-11-14T23:30:38.895Z,7.16
2018-11-14T23:33:08.531Z,7.12
2018-11-14T23:35:38.216Z,7.06
2018-11-14T23:38:07.855Z,7.03
2018-11-14T23:40:37.532Z,6.97
2018-11-14T23:43:07.228Z,7.01
2018-11-14T23:45:36.896Z,7.02
2018-11-14T23:48:06.867Z,7.03
2018-11-14T23:50:36.568Z,7.04
2018-11-14T23:53:06.294Z,7.08
2018-11-14T23:55:35.939Z,7.03
2018-11-14T23:58:05.737Z,7.01
